KSUS

Spirit of St Louis Airport

St Louis, Missouri, USA
METAR KSUS 230454Z 00000KT 10SM CLR 09/07 A3018 RMK AO2 SLP218 T00890072
Observed Flight Rules
Oct-23 @ 04:54 UTC (an hour ago) Visual Flight Rules
Visibility Clouds
10 miles
  • Clear skies
Temperatures Readings
Current 9°C / 48°F
Dewpoint 7°C / 45°F
Humidity 87%
Altimeter 30.18" Hg
Pressure 1021.8 hPa
Elevation 141
METAR KSUS 230454Z 00000KT 10SM CLR 09/07 A3018 RMK AO2 SLP218 T00890072
Observed Flight Rules
Oct-23 @ 04:54 UTC
(an hour ago)
VFR
Clouds
  • Clear skies
Temperature Dewpoint
9°C / 48°F 7°C / 45°F
Humidity Altimeter Pressure
87% 30.18" Hg 1021.8 hPa